Time;durP1;ratioP1;P1;durP2;ratioP2;P2;SDS_P1;SDS_P2;PMS_P1;PMS_P2;Temp;Humidity;BMP_temperature;BMP_pressure;BME280_temperature;BME280_humidity;BME280_pressure;Samples;Min_cycle;Max_cycle;Signal;HPM_P1;HPM_P2
2022/10/04 00:05:03;;;;;;;4.10;1.57;;;;;;;;;;6129159;23;20014;-45
2022/10/04 00:07:31;;;;;;;4.15;1.88;;;;;;;;;;6129179;23;20436;-44
2022/10/04 00:09:59;;;;;;;4.82;1.55;;;;;;;;;;6130261;23;20018;-42
2022/10/04 00:12:28;;;;;;;3.03;1.08;;;;;;;;;;6133709;23;20017;-46
2022/10/04 00:14:56;;;;;;;3.38;1.17;;;;;;;;;;6134085;23;20014;-42
2022/10/04 00:17:25;;;;;;;5.27;2.20;;;;;;;;;;6126613;23;20395;-46
2022/10/04 00:19:52;;;;;;;4.25;1.95;;;;;;;;;;6134435;23;20064;-44
2022/10/04 00:22:21;;;;;;;3.45;1.17;;;;;;;;;;6127950;23;20017;-43
2022/10/04 00:25:21;;;;;;;3.60;1.35;;;;;;;;;;6136684;23;20017;-44
2022/10/04 00:28:07;;;;;;;4.00;1.55;;;;;;;;;;6135564;23;20031;-43
2022/10/04 00:30:37;;;;;;;5.03;1.43;;;;;;;;;;6134020;23;20049;-43
2022/10/04 00:33:04;;;;;;;3.83;1.50;;;;;;;;;;6127577;23;20022;-43
2022/10/04 00:35:46;;;;;;;3.92;1.92;;;;;;;;;;6136876;23;20021;-45
2022/10/04 00:38:15;;;;;;;2.67;1.00;;;;;;;;;;6133494;23;20502;-43
2022/10/04 00:40:45;;;;;;;2.78;1.00;;;;;;;;;;6129430;23;20013;-42
2022/10/04 00:43:15;;;;;;;3.83;1.27;;;;;;;;;;6135325;23;20274;-45
2022/10/04 00:45:43;;;;;;;2.95;1.08;;;;;;;;;;6129697;23;20022;-44
2022/10/04 00:48:31;;;;;;;4.20;1.02;;;;;;;;;;6135653;23;20022;-44
2022/10/04 00:51:01;;;;;;;4.07;1.23;;;;;;;;;;6135917;23;20039;-42
2022/10/04 00:53:38;;;;;;;3.60;1.35;;;;;;;;;;6129721;23;20018;-45
2022/10/04 00:56:07;;;;;;;3.83;1.37;;;;;;;;;;6132992;23;20508;-44
2022/10/04 00:58:35;;;;;;;3.45;1.20;;;;;;;;;;6128201;23;20353;-46
2022/10/04 01:01:03;;;;;;;4.40;1.60;;;;;;;;;;6124975;23;20441;-47
2022/10/04 01:03:33;;;;;;;3.60;1.20;;;;;;;;;;6142962;23;20021;-42
2022/10/04 01:06:01;;;;;;;3.78;1.60;;;;;;;;;;6164023;23;20021;-45
2022/10/04 01:08:31;;;;;;;4.00;1.60;;;;;;;;;;6161651;23;20476;-43
2022/10/04 01:11:02;;;;;;;3.67;1.27;;;;;;;;;;6160586;23;20041;-45
2022/10/04 01:13:30;;;;;;;4.53;1.63;;;;;;;;;;6164173;23;20013;-45
2022/10/04 01:15:59;;;;;;;3.40;1.20;;;;;;;;;;6158995;23;20017;-46
2022/10/04 01:18:30;;;;;;;3.47;1.35;;;;;;;;;;6163788;23;20068;-45
2022/10/04 01:20:59;;;;;;;4.13;1.90;;;;;;;;;;6163401;23;20100;-45
2022/10/04 01:23:38;;;;;;;4.00;1.40;;;;;;;;;;6158344;23;20021;-45
2022/10/04 01:26:04;;;;;;;3.15;1.02;;;;;;;;;;6164074;23;20391;-44
2022/10/04 01:28:32;;;;;;;3.13;1.13;;;;;;;;;;6159386;23;20453;-44
2022/10/04 01:30:58;;;;;;;3.75;1.40;;;;;;;;;;6164448;23;20020;-44
2022/10/04 01:33:26;;;;;;;2.90;1.17;;;;;;;;;;6159598;23;20017;-44
2022/10/04 01:35:52;;;;;;;7.35;1.15;;;;;;;;;;6159756;23;20025;-44
2022/10/04 01:38:19;;;;;;;2.15;0.70;;;;;;;;;;6162753;23;20020;-42
2022/10/04 01:40:51;;;;;;;3.53;1.30;;;;;;;;;;6159334;23;20017;-43
2022/10/04 01:43:23;;;;;;;3.30;1.27;;;;;;;;;;6165003;23;20014;-43
2022/10/04 01:45:53;;;;;;;3.93;1.70;;;;;;;;;;6160134;23;20017;-47
2022/10/04 01:48:21;;;;;;;2.92;0.88;;;;;;;;;;6157023;23;20021;-43
2022/10/04 01:50:51;;;;;;;4.75;1.38;;;;;;;;;;6159100;23;20071;-43
2022/10/04 01:53:20;;;;;;;2.58;0.80;;;;;;;;;;6158764;23;20021;-44
2022/10/04 01:55:50;;;;;;;3.50;1.45;;;;;;;;;;6164517;23;20377;-42
2022/10/04 01:58:19;;;;;;;2.47;0.70;;;;;;;;;;6156444;23;20464;-44
2022/10/04 02:00:48;;;;;;;3.50;1.50;;;;;;;;;;6162563;23;20013;-44
2022/10/04 02:03:17;;;;;;;2.60;0.75;;;;;;;;;;6158164;23;20028;-43
2022/10/04 02:05:47;;;;;;;3.90;1.13;;;;;;;;;;6165128;23;20104;-43
2022/10/04 02:08:16;;;;;;;3.55;0.90;;;;;;;;;;6159094;23;20091;-42
2022/10/04 02:10:43;;;;;;;2.70;1.10;;;;;;;;;;6161615;23;20108;-42
2022/10/04 02:13:12;;;;;;;2.65;0.80;;;;;;;;;;6164999;23;20100;-42
2022/10/04 02:15:39;;;;;;;3.80;1.30;;;;;;;;;;6159150;23;20089;-42
2022/10/04 02:18:09;;;;;;;2.65;0.82;;;;;;;;;;6163948;23;20459;-42
2022/10/04 02:20:39;;;;;;;2.88;0.90;;;;;;;;;;6155057;23;20024;-42
2022/10/04 02:23:05;;;;;;;3.53;1.10;;;;;;;;;;6164222;23;20021;-43
2022/10/04 02:25:32;;;;;;;2.83;0.77;;;;;;;;;;6138750;23;20025;-42
2022/10/04 02:27:59;;;;;;;2.83;0.75;;;;;;;;;;6151453;23;20029;-44
2022/10/04 02:30:26;;;;;;;3.08;1.20;;;;;;;;;;6160599;23;20444;-42
2022/10/04 02:32:59;;;;;;;2.70;0.75;;;;;;;;;;6161495;23;20600;-42
2022/10/04 02:35:27;;;;;;;2.47;0.70;;;;;;;;;;6158241;23;20387;-42
2022/10/04 02:37:56;;;;;;;3.15;0.98;;;;;;;;;;6157599;23;20388;-43
2022/10/04 02:40:29;;;;;;;3.05;0.75;;;;;;;;;;6163246;23;20013;-43
2022/10/04 02:42:59;;;;;;;2.60;0.75;;;;;;;;;;6161212;23;20091;-44
2022/10/04 02:45:33;;;;;;;2.40;0.65;;;;;;;;;;6159811;23;20052;-44
2022/10/04 02:48:01;;;;;;;2.27;0.40;;;;;;;;;;6158417;23;20024;-43
2022/10/04 02:50:30;;;;;;;2.75;0.88;;;;;;;;;;6165311;23;20021;-51
2022/10/04 02:52:58;;;;;;;2.50;0.70;;;;;;;;;;6164370;23;20325;-44
2022/10/04 02:55:26;;;;;;;2.50;0.70;;;;;;;;;;6155795;23;20097;-44
2022/10/04 02:57:53;;;;;;;3.33;0.93;;;;;;;;;;6167038;23;20027;-45
2022/10/04 03:00:21;;;;;;;2.53;0.77;;;;;;;;;;6159018;23;20017;-45
2022/10/04 03:03:06;;;;;;;2.05;0.60;;;;;;;;;;6163901;23;20024;-45
2022/10/04 03:05:34;;;;;;;2.55;0.70;;;;;;;;;;6144535;23;20021;-44
2022/10/04 03:08:00;;;;;;;2.30;0.68;;;;;;;;;;6164221;23;20070;-42
2022/10/04 03:10:27;;;;;;;3.15;1.00;;;;;;;;;;6161494;23;20013;-43
2022/10/04 03:12:53;;;;;;;2.87;0.90;;;;;;;;;;6167724;23;20067;-45
2022/10/04 03:15:20;;;;;;;2.13;0.43;;;;;;;;;;6160929;23;20021;-42
2022/10/04 03:17:47;;;;;;;3.35;0.98;;;;;;;;;;6161395;23;20017;-42
2022/10/04 03:20:19;;;;;;;2.97;1.00;;;;;;;;;;6164953;23;20029;-43
2022/10/04 03:22:50;;;;;;;2.72;0.98;;;;;;;;;;6156542;23;20021;-43
2022/10/04 03:25:18;;;;;;;2.40;0.60;;;;;;;;;;6163844;23;20444;-44
2022/10/04 03:27:46;;;;;;;2.13;0.60;;;;;;;;;;6160401;23;20040;-44
2022/10/04 03:30:13;;;;;;;2.28;0.52;;;;;;;;;;6155391;23;20035;-43
2022/10/04 03:32:40;;;;;;;5.55;1.38;;;;;;;;;;6162053;23;20470;-43
2022/10/04 03:35:08;;;;;;;2.40;0.63;;;;;;;;;;6158914;23;20017;-42
2022/10/04 03:37:36;;;;;;;2.53;0.60;;;;;;;;;;6160719;23;20068;-44
2022/10/04 03:40:08;;;;;;;2.85;0.68;;;;;;;;;;6165845;23;20017;-44
2022/10/04 03:42:36;;;;;;;3.10;0.75;;;;;;;;;;6160613;23;20095;-44
2022/10/04 03:45:06;;;;;;;2.45;0.70;;;;;;;;;;6163443;23;20026;-44
2022/10/04 03:47:34;;;;;;;2.55;0.77;;;;;;;;;;6159651;23;20439;-44
2022/10/04 03:50:02;;;;;;;2.10;0.43;;;;;;;;;;6167123;23;20088;-45
2022/10/04 03:52:31;;;;;;;2.00;0.40;;;;;;;;;;6160746;23;20020;-44
2022/10/04 03:55:00;;;;;;;2.40;0.85;;;;;;;;;;6164771;23;20013;-43
2022/10/04 03:57:28;;;;;;;3.72;0.70;;;;;;;;;;6140584;23;20021;-44
2022/10/04 03:59:55;;;;;;;3.03;0.65;;;;;;;;;;6160422;23;20036;-43
2022/10/04 04:02:29;;;;;;;1.67;0.33;;;;;;;;;;6163009;23;20075;-44
2022/10/04 04:05:01;;;;;;;2.63;0.80;;;;;;;;;;6161706;23;20013;-44
2022/10/04 04:07:29;;;;;;;2.72;0.63;;;;;;;;;;6161403;23;20017;-43
2022/10/04 04:09:59;;;;;;;2.90;1.00;;;;;;;;;;6159723;23;20009;-44
2022/10/04 04:12:32;;;;;;;2.17;0.60;;;;;;;;;;6164797;23;20021;-42
2022/10/04 04:15:01;;;;;;;2.03;0.40;;;;;;;;;;6159083;23;20036;-44
2022/10/04 04:17:34;;;;;;;3.50;0.85;;;;;;;;;;6162905;23;20017;-44
2022/10/04 04:20:02;;;;;;;2.30;0.50;;;;;;;;;;6154922;23;20095;-42
2022/10/04 04:22:30;;;;;;;1.67;0.45;;;;;;;;;;6162529;23;20354;-42
2022/10/04 04:24:58;;;;;;;3.97;0.60;;;;;;;;;;6163129;23;20017;-43
2022/10/04 04:27:25;;;;;;;3.10;0.43;;;;;;;;;;6161755;23;20071;-42
2022/10/04 04:29:53;;;;;;;2.03;0.55;;;;;;;;;;6161346;23;20017;-47
2022/10/04 04:32:24;;;;;;;1.73;0.30;;;;;;;;;;6164079;23;20059;-42
2022/10/04 04:34:51;;;;;;;2.13;0.50;;;;;;;;;;6162516;23;20096;-45
2022/10/04 04:37:18;;;;;;;1.63;0.32;;;;;;;;;;6161662;23;20059;-43
2022/10/04 04:39:48;;;;;;;1.93;0.50;;;;;;;;;;6164087;23;20456;-42
2022/10/04 04:42:16;;;;;;;1.92;0.40;;;;;;;;;;6158430;23;20580;-45
2022/10/04 04:44:47;;;;;;;1.65;0.30;;;;;;;;;;6167290;23;20021;-43
2022/10/04 04:47:21;;;;;;;2.00;0.40;;;;;;;;;;6149709;23;20039;-44
2022/10/04 04:49:49;;;;;;;2.03;0.45;;;;;;;;;;6157727;23;20515;-43
2022/10/04 04:52:16;;;;;;;1.20;0.20;;;;;;;;;;6163509;23;20036;-41
2022/10/04 04:54:45;;;;;;;1.90;0.40;;;;;;;;;;6159636;23;20017;-43
2022/10/04 04:57:15;;;;;;;1.75;0.45;;;;;;;;;;6164236;23;20021;-43
2022/10/04 04:59:44;;;;;;;1.45;0.30;;;;;;;;;;6159627;23;20669;-43
2022/10/04 05:02:25;;;;;;;1.80;0.40;;;;;;;;;;6163203;23;20013;-45
2022/10/04 05:05:06;;;;;;;1.30;0.30;;;;;;;;;;6157661;23;20459;-44
2022/10/04 05:07:36;;;;;;;1.63;0.30;;;;;;;;;;6162874;23;20021;-45
2022/10/04 05:10:18;;;;;;;1.45;0.20;;;;;;;;;;6162181;23;20024;-44
2022/10/04 05:12:45;;;;;;;1.30;0.20;;;;;;;;;;6159434;23;20575;-43
2022/10/04 05:15:12;;;;;;;1.23;0.30;;;;;;;;;;6163153;23;20172;-43
2022/10/04 05:17:39;;;;;;;1.07;0.20;;;;;;;;;;6161702;23;20104;-43
2022/10/04 05:20:06;;;;;;;2.22;0.50;;;;;;;;;;6164287;23;20017;-43
2022/10/04 05:22:34;;;;;;;1.90;0.50;;;;;;;;;;6158680;23;20020;-46
2022/10/04 05:25:02;;;;;;;2.67;0.60;;;;;;;;;;6162527;23;20079;-44
2022/10/04 05:27:30;;;;;;;1.63;0.40;;;;;;;;;;6157837;23;20017;-45
2022/10/04 05:30:01;;;;;;;1.40;0.30;;;;;;;;;;6164806;23;20023;-48
2022/10/04 05:32:30;;;;;;;1.45;0.35;;;;;;;;;;6161516;23;20020;-42
2022/10/04 05:34:58;;;;;;;2.17;0.40;;;;;;;;;;6164372;23;20013;-44
2022/10/04 05:37:41;;;;;;;1.50;0.30;;;;;;;;;;6157912;23;20028;-42
2022/10/04 05:40:19;;;;;;;2.13;0.63;;;;;;;;;;6156335;23;20055;-42
2022/10/04 05:42:46;;;;;;;1.20;0.40;;;;;;;;;;6165889;23;20020;-43
2022/10/04 05:45:15;;;;;;;2.40;0.60;;;;;;;;;;6156282;23;20051;-43
2022/10/04 05:47:42;;;;;;;1.52;0.40;;;;;;;;;;6164055;23;20048;-41
2022/10/04 05:50:14;;;;;;;1.80;0.40;;;;;;;;;;6159445;23;20409;-42
2022/10/04 05:52:43;;;;;;;1.30;0.20;;;;;;;;;;6164670;23;20024;-43
2022/10/04 05:55:16;;;;;;;1.87;0.43;;;;;;;;;;6156921;23;20075;-42
2022/10/04 05:57:47;;;;;;;1.80;0.40;;;;;;;;;;6156691;23;20565;-42
2022/10/04 06:00:16;;;;;;;1.95;0.50;;;;;;;;;;6164266;23;20013;-42
2022/10/04 06:03:00;;;;;;;2.20;0.52;;;;;;;;;;6156417;23;20475;-42
2022/10/04 06:05:28;;;;;;;2.15;0.50;;;;;;;;;;6117123;23;20029;-42
2022/10/04 06:07:59;;;;;;;1.87;0.57;;;;;;;;;;6158359;23;20553;-42
2022/10/04 06:10:42;;;;;;;1.88;0.55;;;;;;;;;;6163162;23;20428;-46
2022/10/04 06:13:16;;;;;;;2.55;0.63;;;;;;;;;;6160660;23;20017;-42
2022/10/04 06:15:52;;;;;;;2.35;0.90;;;;;;;;;;6159876;23;20021;-42
2022/10/04 06:18:25;;;;;;;2.25;0.68;;;;;;;;;;6164203;23;20104;-44
2022/10/04 06:21:16;;;;;;;4.30;1.17;;;;;;;;;;6156758;23;20117;-42
2022/10/04 06:23:47;;;;;;;1.58;0.30;;;;;;;;;;6160711;23;20487;-44
2022/10/04 06:26:18;;;;;;;2.13;0.47;;;;;;;;;;6160662;23;20519;-42
2022/10/04 06:28:46;;;;;;;2.88;0.80;;;;;;;;;;6162780;23;20017;-42
2022/10/04 06:31:24;;;;;;;2.97;0.90;;;;;;;;;;6166941;23;20028;-45
2022/10/04 06:34:02;;;;;;;2.97;0.80;;;;;;;;;;6161684;23;20025;-44
2022/10/04 06:36:35;;;;;;;2.13;0.60;;;;;;;;;;6161331;23;20036;-42
2022/10/04 06:39:19;;;;;;;3.28;1.13;;;;;;;;;;6163038;23;20025;-45
2022/10/04 06:41:51;;;;;;;3.35;0.75;;;;;;;;;;6160860;23;20425;-44
2022/10/04 06:44:29;;;;;;;2.50;0.85;;;;;;;;;;6165406;23;20013;-45
2022/10/04 06:47:03;;;;;;;2.30;0.73;;;;;;;;;;6159110;23;20029;-43
2022/10/04 06:49:33;;;;;;;3.38;1.17;;;;;;;;;;6164449;23;20096;-46
2022/10/04 06:52:24;;;;;;;3.30;1.27;;;;;;;;;;6161937;23;20024;-44
2022/10/04 06:55:02;;;;;;;2.28;0.68;;;;;;;;;;6161768;23;20039;-46
2022/10/04 06:57:39;;;;;;;3.13;0.93;;;;;;;;;;6163956;23;20065;-44
2022/10/04 07:00:12;;;;;;;2.83;1.00;;;;;;;;;;6163125;23;20013;-47
2022/10/04 07:02:40;;;;;;;1.90;0.60;;;;;;;;;;6158857;23;20108;-44
2022/10/04 07:05:14;;;;;;;2.10;0.70;;;;;;;;;;6163600;23;20084;-45
2022/10/04 07:07:46;;;;;;;2.40;0.60;;;;;;;;;;6153368;23;20323;-44
2022/10/04 07:10:23;;;;;;;1.88;0.45;;;;;;;;;;6163379;23;20354;-44
2022/10/04 07:12:53;;;;;;;1.97;0.50;;;;;;;;;;6160878;23;20017;-45
2022/10/04 07:15:25;;;;;;;1.90;0.50;;;;;;;;;;6166735;23;20104;-44
2022/10/04 07:17:52;;;;;;;2.70;0.90;;;;;;;;;;6162308;23;20013;-42
2022/10/04 07:20:21;;;;;;;2.33;0.60;;;;;;;;;;6160865;23;20482;-42
2022/10/04 07:22:51;;;;;;;2.10;0.60;;;;;;;;;;6161375;23;20096;-44
2022/10/04 07:25:22;;;;;;;1.80;0.40;;;;;;;;;;6160465;23;20027;-42
2022/10/04 07:29:19;;;;;;;1.85;0.47;;;;;;;;;;6167120;23;20016;-46
2022/10/04 07:30:42;;;;;;;2.10;0.60;;;;;;;;;;6161240;23;20452;-44
2022/10/04 07:33:12;;;;;;;1.60;0.30;;;;;;;;;;6158100;23;20017;-42
2022/10/04 07:35:43;;;;;;;2.53;0.70;;;;;;;;;;6165182;23;20577;-42
2022/10/04 07:38:16;;;;;;;1.90;0.70;;;;;;;;;;6160230;23;20024;-43
2022/10/04 07:40:54;;;;;;;1.95;0.40;;;;;;;;;;6157385;23;20040;-44
2022/10/04 07:43:23;;;;;;;2.75;0.70;;;;;;;;;;6160979;23;20021;-46
2022/10/04 07:45:50;;;;;;;2.78;0.70;;;;;;;;;;6166234;23;20063;-44
2022/10/04 07:48:22;;;;;;;2.20;0.50;;;;;;;;;;6157931;23;20537;-47
2022/10/04 07:50:51;;;;;;;1.60;0.33;;;;;;;;;;6163876;23;20044;-44
2022/10/04 07:53:20;;;;;;;1.70;0.43;;;;;;;;;;6159507;23;20028;-43
2022/10/04 07:55:55;;;;;;;1.98;0.50;;;;;;;;;;6166235;23;20017;-44
2022/10/04 07:58:28;;;;;;;2.08;0.57;;;;;;;;;;6159529;23;20105;-42
2022/10/04 08:00:56;;;;;;;3.10;1.02;;;;;;;;;;6160194;23;20024;-44
2022/10/04 08:03:39;;;;;;;1.53;0.30;;;;;;;;;;6163584;23;20321;-43
2022/10/04 08:06:10;;;;;;;2.17;0.52;;;;;;;;;;6151892;23;20092;-44
2022/10/04 08:09:01;;;;;;;1.95;0.40;;;;;;;;;;6162065;23;20293;-44
2022/10/04 08:11:37;;;;;;;2.45;0.57;;;;;;;;;;6161414;23;20459;-43
2022/10/04 08:14:08;;;;;;;2.85;0.50;;;;;;;;;;6160848;23;20013;-43
2022/10/04 08:16:36;;;;;;;2.40;0.60;;;;;;;;;;6163139;23;20017;-43
2022/10/04 08:19:18;;;;;;;2.13;0.50;;;;;;;;;;6158712;23;20020;-42
2022/10/04 08:21:48;;;;;;;2.22;0.63;;;;;;;;;;6167091;23;20028;-44
2022/10/04 08:24:18;;;;;;;2.47;0.52;;;;;;;;;;6157591;23;20024;-44
2022/10/04 08:26:52;;;;;;;2.17;0.60;;;;;;;;;;6164020;23;20021;-43
2022/10/04 08:29:42;;;;;;;2.97;0.80;;;;;;;;;;6163166;23;20023;-43
2022/10/04 08:32:18;;;;;;;2.30;0.60;;;;;;;;;;6156770;23;20021;-45
2022/10/04 08:34:54;;;;;;;2.65;0.80;;;;;;;;;;6164958;23;20017;-43
2022/10/04 08:37:27;;;;;;;2.90;0.95;;;;;;;;;;6161841;23;20432;-42
2022/10/04 08:40:11;;;;;;;4.45;0.85;;;;;;;;;;6163599;23;20013;-44
2022/10/04 08:42:59;;;;;;;1.70;0.40;;;;;;;;;;6116291;23;20487;-42
2022/10/04 08:45:52;;;;;;;2.03;0.47;;;;;;;;;;6160629;23;20028;-43
2022/10/04 08:48:52;;;;;;;1.65;0.40;;;;;;;;;;6161031;23;20017;-42
2022/10/04 08:51:37;;;;;;;2.20;0.70;;;;;;;;;;6161300;23;20013;-42
2022/10/04 08:54:27;;;;;;;2.13;0.63;;;;;;;;;;6161609;23;20017;-42
2022/10/04 08:57:05;;;;;;;2.23;0.67;;;;;;;;;;6160762;23;20045;-45
2022/10/04 08:59:45;;;;;;;2.03;0.40;;;;;;;;;;6163473;23;20091;-44
2022/10/04 09:02:24;;;;;;;1.88;0.50;;;;;;;;;;6161237;23;20013;-44
2022/10/04 09:05:00;;;;;;;1.80;0.40;;;;;;;;;;6159590;23;20027;-45
2022/10/04 09:07:48;;;;;;;1.70;0.40;;;;;;;;;;6162312;23;20021;-43
2022/10/04 09:10:33;;;;;;;2.67;0.70;;;;;;;;;;6164019;23;20017;-43
2022/10/04 09:13:14;;;;;;;1.90;0.50;;;;;;;;;;6158577;23;20021;-43
2022/10/04 09:16:02;;;;;;;1.77;0.35;;;;;;;;;;6156778;23;20031;-45
2022/10/04 09:18:38;;;;;;;2.10;0.60;;;;;;;;;;6161738;23;20396;-43
2022/10/04 09:21:09;;;;;;;2.30;0.90;;;;;;;;;;6162096;23;20092;-42
2022/10/04 09:23:48;;;;;;;2.23;0.63;;;;;;;;;;6163798;23;20356;-42
2022/10/04 09:26:20;;;;;;;1.67;0.40;;;;;;;;;;6161652;23;20183;-43
2022/10/04 09:29:14;;;;;;;2.28;0.68;;;;;;;;;;6160374;23;20569;-42
2022/10/04 09:31:51;;;;;;;1.88;0.40;;;;;;;;;;6160811;23;20507;-42
2022/10/04 09:34:28;;;;;;;2.25;0.73;;;;;;;;;;6159780;23;20013;-43
2022/10/04 09:37:16;;;;;;;4.37;0.50;;;;;;;;;;6160564;23;20013;-42
2022/10/04 09:39:51;;;;;;;2.15;0.73;;;;;;;;;;6164143;23;20028;-42
2022/10/04 09:42:24;;;;;;;1.67;0.50;;;;;;;;;;6157737;23;20013;-43
2022/10/04 09:45:06;;;;;;;1.95;0.50;;;;;;;;;;6157514;23;20396;-44
2022/10/04 09:47:44;;;;;;;1.70;0.40;;;;;;;;;;6137340;23;20091;-43
2022/10/04 09:50:30;;;;;;;1.90;0.50;;;;;;;;;;6158883;23;20092;-42
2022/10/04 09:53:03;;;;;;;1.95;0.65;;;;;;;;;;6157403;23;20017;-44
2022/10/04 09:55:40;;;;;;;1.70;0.40;;;;;;;;;;6164666;23;20017;-42
2022/10/04 09:58:17;;;;;;;2.05;0.40;;;;;;;;;;6152511;23;20678;-42
2022/10/04 10:00:46;;;;;;;2.00;0.70;;;;;;;;;;6168641;23;20027;-43
2022/10/04 10:03:26;;;;;;;2.00;0.57;;;;;;;;;;6158353;23;20021;-43
2022/10/04 10:06:06;;;;;;;1.75;0.40;;;;;;;;;;6163438;23;20013;-44
2022/10/04 10:08:36;;;;;;;2.70;0.70;;;;;;;;;;6166092;23;20487;-44
2022/10/04 10:14:13;;;;;;;2.05;0.55;;;;;;;;;;6161345;23;20113;-44
2022/10/04 10:16:47;;;;;;;1.83;0.47;;;;;;;;;;6167798;23;20016;-45
2022/10/04 10:19:31;;;;;;;1.83;0.40;;;;;;;;;;6160365;23;20025;-43
2022/10/04 10:22:02;;;;;;;1.73;0.38;;;;;;;;;;6164018;23;20444;-44
2022/10/04 10:25:02;;;;;;;2.38;0.68;;;;;;;;;;6164381;23;20021;-43
2022/10/04 10:27:41;;;;;;;1.70;0.40;;;;;;;;;;6073921;23;20019;-42
2022/10/04 10:30:19;;;;;;;1.77;0.40;;;;;;;;;;6069429;23;20393;-44
2022/10/04 10:33:02;;;;;;;1.42;0.30;;;;;;;;;;6126706;23;20021;-43
2022/10/04 10:35:35;;;;;;;2.13;0.47;;;;;;;;;;6166619;23;20017;-42
2022/10/04 10:38:08;;;;;;;1.85;0.50;;;;;;;;;;6162246;23;20017;-43
2022/10/04 10:40:47;;;;;;;1.70;0.38;;;;;;;;;;6159746;23;20024;-44
2022/10/04 10:43:26;;;;;;;1.53;0.43;;;;;;;;;;6161163;23;20013;-42
2022/10/04 10:46:02;;;;;;;2.22;0.50;;;;;;;;;;6162650;23;20021;-43
2022/10/04 10:48:35;;;;;;;1.30;0.20;;;;;;;;;;6160331;23;20016;-44
2022/10/04 10:51:09;;;;;;;1.40;0.32;;;;;;;;;;6166547;23;20037;-43
2022/10/04 10:53:48;;;;;;;1.77;0.30;;;;;;;;;;6160760;23;20486;-45
2022/10/04 10:56:27;;;;;;;1.87;0.30;;;;;;;;;;6158577;23;20013;-43
2022/10/04 10:59:11;;;;;;;2.15;0.30;;;;;;;;;;6165140;23;20017;-46
2022/10/04 11:01:47;;;;;;;1.92;0.40;;;;;;;;;;6160614;23;20051;-46
2022/10/04 11:04:28;;;;;;;1.50;0.30;;;;;;;;;;6159153;23;20021;-44
2022/10/04 11:07:12;;;;;;;1.85;0.43;;;;;;;;;;6147255;23;20416;-44
2022/10/04 11:09:50;;;;;;;1.40;0.30;;;;;;;;;;6156466;23;20032;-46
2022/10/04 11:12:31;;;;;;;2.22;0.77;;;;;;;;;;6161339;23;20028;-44
2022/10/04 11:15:19;;;;;;;1.48;0.30;;;;;;;;;;6164065;23;20017;-43
2022/10/04 11:18:00;;;;;;;1.60;0.50;;;;;;;;;;6163971;23;20072;-45
2022/10/04 11:20:54;;;;;;;1.58;0.30;;;;;;;;;;6160988;23;20025;-44
2022/10/04 11:23:34;;;;;;;1.60;0.40;;;;;;;;;;6093090;23;20021;-44
2022/10/04 11:26:14;;;;;;;1.70;0.40;;;;;;;;;;6161851;23;20040;-43
2022/10/04 11:28:45;;;;;;;1.65;0.40;;;;;;;;;;6159982;23;20448;-44
2022/10/04 11:31:33;;;;;;;1.50;0.30;;;;;;;;;;6163863;23;20020;-44
2022/10/04 11:34:17;;;;;;;1.80;0.40;;;;;;;;;;6124841;23;20025;-43
2022/10/04 11:36:50;;;;;;;2.00;0.50;;;;;;;;;;6163303;23;20071;-44
2022/10/04 11:39:25;;;;;;;1.60;0.40;;;;;;;;;;6163537;23;20285;-43
2022/10/04 11:41:55;;;;;;;1.80;0.40;;;;;;;;;;6161958;23;20017;-46
2022/10/04 11:44:29;;;;;;;1.80;0.45;;;;;;;;;;6164641;23;20419;-44
2022/10/04 11:46:59;;;;;;;1.73;0.35;;;;;;;;;;6160002;23;20017;-44
2022/10/04 11:49:34;;;;;;;4.20;0.80;;;;;;;;;;6165337;23;20024;-46
2022/10/04 11:52:30;;;;;;;1.42;0.30;;;;;;;;;;6153901;23;20013;-46
2022/10/04 11:55:16;;;;;;;1.33;0.30;;;;;;;;;;6160867;23;20021;-42
2022/10/04 11:57:46;;;;;;;1.63;0.32;;;;;;;;;;6158056;23;20017;-43
2022/10/04 12:00:15;;;;;;;1.50;0.30;;;;;;;;;;6163936;23;20364;-43
2022/10/04 12:03:06;;;;;;;1.90;0.40;;;;;;;;;;6160735;23;20021;-46
2022/10/04 12:05:38;;;;;;;1.25;0.20;;;;;;;;;;6160169;23;20048;-46
2022/10/04 12:08:14;;;;;;;2.53;0.93;;;;;;;;;;6156078;23;20028;-44
2022/10/04 12:10:42;;;;;;;2.00;0.70;;;;;;;;;;6166167;23;20021;-43
2022/10/04 12:13:21;;;;;;;1.58;0.35;;;;;;;;;;6160069;23;20076;-45
2022/10/04 12:15:55;;;;;;;1.63;0.30;;;;;;;;;;6154561;23;20459;-44
2022/10/04 12:18:43;;;;;;;1.40;0.28;;;;;;;;;;6163851;23;20075;-46
2022/10/04 12:21:15;;;;;;;1.50;0.30;;;;;;;;;;6151388;23;20020;-46
2022/10/04 12:23:49;;;;;;;1.58;0.30;;;;;;;;;;6160565;23;20020;-45
2022/10/04 12:26:31;;;;;;;1.55;0.40;;;;;;;;;;6165201;23;20013;-43
2022/10/04 12:29:17;;;;;;;2.00;0.60;;;;;;;;;;6160264;23;20021;-43
2022/10/04 12:31:45;;;;;;;1.80;0.30;;;;;;;;;;6160956;23;20021;-43
2022/10/04 12:34:16;;;;;;;3.63;0.60;;;;;;;;;;6165046;23;20017;-42
2022/10/04 12:36:57;;;;;;;1.90;0.50;;;;;;;;;;6164646;23;20020;-43
2022/10/04 12:39:30;;;;;;;2.17;0.88;;;;;;;;;;6161571;23;20044;-43
2022/10/04 12:42:02;;;;;;;1.47;0.30;;;;;;;;;;6161902;23;20175;-43
2022/10/04 12:44:40;;;;;;;1.90;0.50;;;;;;;;;;6160534;23;20100;-42
2022/10/04 12:47:29;;;;;;;1.95;0.50;;;;;;;;;;6162197;23;20012;-43
2022/10/04 12:49:59;;;;;;;1.90;0.50;;;;;;;;;;6161218;23;20017;-44
2022/10/04 12:52:29;;;;;;;2.03;0.50;;;;;;;;;;6161022;23;20013;-43
2022/10/04 12:55:00;;;;;;;1.77;0.47;;;;;;;;;;6164766;23;20036;-44
2022/10/04 12:57:32;;;;;;;1.60;0.40;;;;;;;;;;6160863;23;20013;-42
2022/10/04 13:00:03;;;;;;;1.90;0.50;;;;;;;;;;6162297;23;20024;-45
2022/10/04 13:02:47;;;;;;;2.22;0.60;;;;;;;;;;6160831;23;20013;-44
2022/10/04 13:05:17;;;;;;;1.80;0.40;;;;;;;;;;6159133;23;20017;-43
2022/10/04 13:07:59;;;;;;;1.90;0.50;;;;;;;;;;6161629;23;20492;-43
2022/10/04 13:10:30;;;;;;;1.73;0.40;;;;;;;;;;6160957;23;20051;-44
2022/10/04 13:13:09;;;;;;;1.90;0.50;;;;;;;;;;6160393;23;20096;-43
2022/10/04 13:15:39;;;;;;;1.60;0.40;;;;;;;;;;6164804;23;20021;-46
2022/10/04 13:18:14;;;;;;;1.52;0.30;;;;;;;;;;6160839;23;20017;-43
2022/10/04 13:20:49;;;;;;;1.90;0.40;;;;;;;;;;6161200;23;20619;-45
2022/10/04 13:23:21;;;;;;;2.03;0.40;;;;;;;;;;6160848;23;20013;-45
2022/10/04 13:25:58;;;;;;;2.28;0.38;;;;;;;;;;6156624;23;20456;-43
2022/10/04 13:28:29;;;;;;;2.30;0.60;;;;;;;;;;6163205;23;20025;-44
2022/10/04 13:31:03;;;;;;;5.07;0.65;;;;;;;;;;6160155;23;20020;-44
2022/10/04 13:33:33;;;;;;;2.03;0.60;;;;;;;;;;6159093;23;20025;-43
2022/10/04 13:36:05;;;;;;;2.35;0.60;;;;;;;;;;6164336;23;20013;-45
2022/10/04 13:38:39;;;;;;;1.80;0.52;;;;;;;;;;6153809;23;20017;-46
2022/10/04 13:41:17;;;;;;;1.65;0.40;;;;;;;;;;6164220;23;20073;-45
2022/10/04 13:44:02;;;;;;;2.10;0.50;;;;;;;;;;6155729;23;20017;-45
2022/10/04 13:46:39;;;;;;;1.80;0.30;;;;;;;;;;6159428;23;20075;-45
2022/10/04 13:49:16;;;;;;;2.75;0.60;;;;;;;;;;6165602;23;20024;-45
2022/10/04 13:57:30;;;;;;;2.03;0.57;;;;;;;;;;6163078;23;20388;-44
2022/10/04 14:00:00;;;;;;;1.97;0.50;;;;;;;;;;6156956;23;20024;-44
2022/10/04 14:02:42;;;;;;;2.13;0.52;;;;;;;;;;6162807;23;20028;-43
2022/10/04 14:05:39;;;;;;;1.73;0.40;;;;;;;;;;6159676;23;20017;-44
2022/10/04 14:08:16;;;;;;;1.90;0.45;;;;;;;;;;6154556;23;20469;-43
2022/10/04 14:10:50;;;;;;;2.10;0.57;;;;;;;;;;6162972;23;20043;-44
2022/10/04 14:13:41;;;;;;;1.90;0.50;;;;;;;;;;6164092;23;20020;-47
2022/10/04 14:16:20;;;;;;;2.10;0.50;;;;;;;;;;6157368;23;20067;-44
2022/10/04 14:19:16;;;;;;;2.20;0.50;;;;;;;;;;6163835;23;20017;-45
2022/10/04 14:22:03;;;;;;;1.88;0.40;;;;;;;;;;6074132;23;20019;-43
2022/10/04 14:24:51;;;;;;;1.98;0.50;;;;;;;;;;6147959;23;20558;-45
2022/10/04 14:27:29;;;;;;;3.43;0.63;;;;;;;;;;6149296;23;20096;-44
2022/10/04 14:30:21;;;;;;;2.65;0.88;;;;;;;;;;6160769;23;20447;-44
2022/10/04 14:33:06;;;;;;;2.22;0.60;;;;;;;;;;6144339;23;20363;-43
2022/10/04 14:35:34;;;;;;;2.80;0.55;;;;;;;;;;6164857;23;20108;-45
2022/10/04 14:38:19;;;;;;;2.65;0.68;;;;;;;;;;6160903;23;20023;-45
2022/10/04 14:41:05;;;;;;;1.73;0.40;;;;;;;;;;6156738;23;20024;-44
2022/10/04 14:43:48;;;;;;;2.70;0.40;;;;;;;;;;6160768;23;20013;-44
2022/10/04 14:46:22;;;;;;;2.03;0.50;;;;;;;;;;6163506;23;20020;-45
2022/10/04 14:49:00;;;;;;;1.60;0.30;;;;;;;;;;6165780;23;20044;-44
2022/10/04 14:51:38;;;;;;;3.38;0.80;;;;;;;;;;6159368;23;20048;-45
2022/10/04 14:54:08;;;;;;;2.20;0.60;;;;;;;;;;6166251;23;20087;-43
2022/10/04 14:56:40;;;;;;;2.20;0.47;;;;;;;;;;6158244;23;20246;-44
2022/10/04 14:59:18;;;;;;;1.77;0.40;;;;;;;;;;6164303;23;20013;-45
2022/10/04 15:02:06;;;;;;;2.88;0.60;;;;;;;;;;6167683;23;20013;-44
2022/10/04 15:04:35;;;;;;;2.75;0.60;;;;;;;;;;6161000;23;20056;-43
2022/10/04 15:07:03;;;;;;;2.43;0.60;;;;;;;;;;6165637;23;20063;-44
2022/10/04 15:09:54;;;;;;;2.10;0.55;;;;;;;;;;6158904;23;20029;-44
2022/10/04 15:12:27;;;;;;;2.28;0.60;;;;;;;;;;6166190;23;20444;-43
2022/10/04 15:15:10;;;;;;;1.58;0.38;;;;;;;;;;6165295;23;20021;-43
2022/10/04 15:17:40;;;;;;;1.88;0.40;;;;;;;;;;6158825;23;20359;-45
2022/10/04 15:20:18;;;;;;;1.80;0.50;;;;;;;;;;6163703;23;20013;-44
2022/10/04 15:22:49;;;;;;;2.85;0.50;;;;;;;;;;6157078;23;20092;-43
2022/10/04 15:25:34;;;;;;;2.92;0.70;;;;;;;;;;6164612;23;20026;-42
2022/10/04 15:28:04;;;;;;;2.65;0.85;;;;;;;;;;6166441;23;20013;-44
2022/10/04 15:30:36;;;;;;;1.75;0.40;;;;;;;;;;6160520;23;20436;-46
2022/10/04 15:33:16;;;;;;;1.63;0.50;;;;;;;;;;6168127;23;20428;-43
2022/10/04 15:35:49;;;;;;;2.63;0.63;;;;;;;;;;6166926;23;20013;-45
2022/10/04 15:38:22;;;;;;;1.77;0.43;;;;;;;;;;6161744;23;20519;-43